Time;durP1;ratioP1;P1;durP2;ratioP2;P2;SDS_P1;SDS_P2;PMS_P1;PMS_P2;Temp;Humidity;BMP_temperature;BMP_pressure;BME280_temperature;BME280_humidity;BME280_pressure;Samples;Min_cycle;Max_cycle;Signal;HPM_P1;HPM_P2
2022/03/05 00:00:08;;;;;;;;;;;3.00;99.90;;;;;;5011127;28;19920;-83
2022/03/05 00:02:34;;;;;;;;;;;3.00;99.90;;;;;;5012033;28;19918;-83
2022/03/05 00:04:59;;;;;;;;;;;2.90;99.90;;;;;;5025298;28;19922;-82
2022/03/05 00:07:24;;;;;;;;;;;2.90;99.90;;;;;;5020284;28;19913;-83
2022/03/05 00:09:50;;;;;;;;;;;2.80;99.90;;;;;;5012789;28;19920;-82
2022/03/05 00:12:15;;;;;;;;;;;2.80;99.90;;;;;;5011301;28;19914;-84
2022/03/05 00:14:41;;;;;;;;;;;2.80;99.90;;;;;;5020116;28;19968;-84
2022/03/05 00:17:07;;;;;;;;;;;2.70;99.90;;;;;;5003191;28;19920;-84
2022/03/05 00:19:32;;;;;;;;;;;2.70;99.90;;;;;;5007003;28;20002;-84
2022/03/05 00:22:01;;;;;;;;;;;2.70;99.90;;;;;;5006488;28;19930;-84
2022/03/05 00:24:27;;;;;;;;;;;2.60;99.90;;;;;;5008915;28;20290;-84
2022/03/05 00:26:52;;;;;;;;;;;2.60;99.90;;;;;;5015008;28;19922;-84
2022/03/05 00:29:18;;;;;;;;;;;2.50;99.90;;;;;;5007440;28;20394;-84
2022/03/05 00:31:43;;;;;;;;;;;2.50;99.90;;;;;;5005027;28;19914;-84
2022/03/05 00:34:09;;;;;;;;;;;2.50;99.90;;;;;;5004610;28;20561;-84
2022/03/05 00:36:35;;;;;;;;;;;2.40;99.90;;;;;;5006382;28;23570;-84
2022/03/05 00:39:01;;;;;;;;;;;2.40;99.90;;;;;;5008289;28;19961;-84
2022/03/05 00:41:26;;;;;;;;;;;2.40;99.90;;;;;;5004396;28;19953;-84
2022/03/05 00:43:52;;;;;;;;;;;2.40;99.90;;;;;;5004511;28;20337;-84
2022/03/05 00:46:17;;;;;;;;;;;2.30;99.90;;;;;;4999900;28;19921;-84
2022/03/05 00:48:43;;;;;;;;;;;2.30;99.90;;;;;;5004395;28;19917;-84
2022/03/05 00:51:08;;;;;;;;;;;2.30;99.90;;;;;;5004721;28;20044;-84
2022/03/05 00:53:33;;;;;;;;;;;2.20;99.90;;;;;;5004475;28;20421;-84
2022/03/05 00:55:59;;;;;;;;;;;2.20;99.90;;;;;;5005859;28;20351;-84
2022/03/05 00:58:24;;;;;;;;;;;2.20;99.90;;;;;;5016549;28;19914;-84
2022/03/05 01:00:52;;;;;;;;;;;2.10;99.90;;;;;;5003065;28;19933;-84
2022/03/05 01:03:18;;;;;;;;;;;2.10;99.90;;;;;;5014409;28;19922;-84
2022/03/05 01:05:43;;;;;;;;;;;2.00;99.90;;;;;;5005803;28;19924;-85
2022/03/05 01:08:09;;;;;;;;;;;2.00;99.90;;;;;;5004445;28;20363;-83
2022/03/05 01:10:35;;;;;;;;;;;2.00;99.90;;;;;;5008666;28;19913;-83
2022/03/05 01:13:00;;;;;;;;;;;1.90;99.90;;;;;;5018376;28;19917;-84
2022/03/05 01:15:26;;;;;;;;;;;1.90;99.90;;;;;;5019119;28;19914;-84
2022/03/05 01:17:51;;;;;;;;;;;1.90;99.90;;;;;;5009913;28;20433;-84
2022/03/05 01:20:17;;;;;;;;;;;1.80;99.90;;;;;;5007277;28;20261;-84
2022/03/05 01:22:42;;;;;;;;;;;1.80;99.90;;;;;;5008488;28;19917;-83
2022/03/05 01:25:08;;;;;;;;;;;1.80;99.90;;;;;;5004821;28;19948;-84
2022/03/05 01:27:33;;;;;;;;;;;1.80;99.90;;;;;;5003297;28;19913;-84
2022/03/05 01:29:59;;;;;;;;;;;1.70;99.90;;;;;;5004100;28;20637;-84
2022/03/05 01:32:24;;;;;;;;;;;1.70;99.90;;;;;;5007069;28;19914;-84
2022/03/05 01:34:50;;;;;;;;;;;1.70;99.90;;;;;;5004283;28;19916;-83
2022/03/05 01:37:15;;;;;;;;;;;1.70;99.90;;;;;;5006595;28;19921;-83
2022/03/05 01:39:43;;;;;;;;;;;1.60;99.90;;;;;;5007790;28;19917;-83
2022/03/05 01:42:09;;;;;;;;;;;1.60;99.90;;;;;;5005915;28;19924;-84
2022/03/05 01:44:34;;;;;;;;;;;1.60;99.90;;;;;;4999559;28;19914;-86
2022/03/05 01:47:01;;;;;;;;;;;1.50;99.90;;;;;;5005352;28;19914;-84
2022/03/05 01:49:26;;;;;;;;;;;1.50;99.90;;;;;;4999950;28;19940;-84
2022/03/05 01:51:54;;;;;;;;;;;1.50;99.90;;;;;;5004145;28;20381;-84
2022/03/05 01:54:19;;;;;;;;;;;1.50;99.90;;;;;;5003999;28;19936;-84
2022/03/05 01:56:45;;;;;;;;;;;1.50;99.90;;;;;;4998166;28;19918;-83
2022/03/05 01:59:11;;;;;;;;;;;1.40;99.90;;;;;;5002700;28;19921;-83
2022/03/05 02:01:36;;;;;;;;;;;1.40;99.90;;;;;;4999911;28;19932;-83
2022/03/05 02:04:02;;;;;;;;;;;1.40;99.90;;;;;;5008328;28;19914;-85
2022/03/05 02:06:27;;;;;;;;;;;1.30;99.90;;;;;;5013670;28;20797;-84
2022/03/05 02:08:55;;;;;;;;;;;1.30;99.90;;;;;;5018573;28;19910;-84
2022/03/05 02:11:21;;;;;;;;;;;1.30;99.90;;;;;;5034166;28;19954;-84
2022/03/05 02:13:46;;;;;;;;;;;1.30;99.90;;;;;;5026861;28;19909;-84
2022/03/05 02:16:12;;;;;;;;;;;1.20;99.90;;;;;;5008227;28;20345;-84
2022/03/05 02:18:37;;;;;;;;;;;1.30;99.90;;;;;;5005693;28;19956;-83
2022/03/05 02:21:04;;;;;;;;;;;1.30;99.90;;;;;;5002459;28;19917;-84
2022/03/05 02:23:29;;;;;;;;;;;1.20;99.90;;;;;;5003453;28;20398;-83
2022/03/05 02:25:56;;;;;;;;;;;1.20;99.90;;;;;;5022419;28;19925;-84
2022/03/05 02:28:22;;;;;;;;;;;1.20;99.90;;;;;;5006366;28;19917;-84
2022/03/05 02:30:48;;;;;;;;;;;1.20;99.90;;;;;;5021601;28;19913;-84
2022/03/05 02:33:13;;;;;;;;;;;1.20;99.90;;;;;;5001388;28;19967;-84
2022/03/05 02:35:39;;;;;;;;;;;1.20;99.90;;;;;;5003406;28;20404;-84
2022/03/05 02:38:04;;;;;;;;;;;1.20;99.90;;;;;;5007526;28;20266;-84
2022/03/05 02:40:30;;;;;;;;;;;1.20;99.90;;;;;;5002834;28;19924;-84
2022/03/05 02:42:55;;;;;;;;;;;1.10;99.90;;;;;;5007961;28;19921;-84
2022/03/05 02:45:21;;;;;;;;;;;1.10;99.90;;;;;;5008965;28;19921;-83
2022/03/05 02:47:46;;;;;;;;;;;1.10;99.90;;;;;;5004900;28;20344;-83
2022/03/05 02:50:12;;;;;;;;;;;1.00;99.90;;;;;;5008643;28;19933;-83
2022/03/05 02:52:38;;;;;;;;;;;0.90;99.90;;;;;;5005655;28;19914;-83
2022/03/05 02:55:04;;;;;;;;;;;0.90;99.90;;;;;;5005734;28;19913;-84
2022/03/05 02:57:29;;;;;;;;;;;0.90;99.90;;;;;;5009003;28;19920;-84
2022/03/05 02:59:55;;;;;;;;;;;0.90;1.00;;;;;;5004752;28;20004;-84
2022/03/05 03:02:20;;;;;;;;;;;0.90;1.00;;;;;;5005148;28;19925;-84
2022/03/05 03:04:46;;;;;;;;;;;0.80;1.00;;;;;;5007738;28;19914;-84
2022/03/05 03:07:11;;;;;;;;;;;0.80;1.00;;;;;;5004848;28;19980;-83
2022/03/05 03:09:37;;;;;;;;;;;0.80;1.00;;;;;;5007982;28;19913;-84
2022/03/05 03:12:02;;;;;;;;;;;0.80;1.00;;;;;;5012184;28;20290;-83
2022/03/05 03:14:28;;;;;;;;;;;0.80;1.00;;;;;;5020570;28;19928;-84
2022/03/05 03:16:53;;;;;;;;;;;0.80;1.00;;;;;;5004217;28;20282;-83
2022/03/05 03:19:19;;;;;;;;;;;0.80;1.00;;;;;;5010319;28;19925;-83
2022/03/05 03:21:44;;;;;;;;;;;0.80;1.00;;;;;;5003669;28;19918;-83
2022/03/05 03:24:10;;;;;;;;;;;0.80;1.00;;;;;;5007205;28;20394;-83
2022/03/05 03:26:35;;;;;;;;;;;0.80;1.00;;;;;;5012091;28;19921;-84
2022/03/05 03:29:01;;;;;;;;;;;0.70;1.00;;;;;;5005467;28;19925;-83
2022/03/05 03:31:26;;;;;;;;;;;0.70;1.00;;;;;;5008073;28;19917;-84
2022/03/05 03:33:52;;;;;;;;;;;0.70;1.00;;;;;;5024845;28;19928;-84
2022/03/05 03:36:18;;;;;;;;;;;0.60;1.00;;;;;;5009273;28;19914;-83
2022/03/05 03:38:43;;;;;;;;;;;0.60;1.00;;;;;;5021020;28;19921;-84
2022/03/05 03:41:09;;;;;;;;;;;0.60;1.00;;;;;;5009938;28;19921;-83
2022/03/05 03:43:34;;;;;;;;;;;0.60;1.00;;;;;;5021862;28;19918;-84
2022/03/05 03:46:00;;;;;;;;;;;0.50;1.00;;;;;;5009981;28;19914;-83
2022/03/05 03:48:25;;;;;;;;;;;0.50;1.00;;;;;;5005301;28;19922;-84
2022/03/05 03:50:51;;;;;;;;;;;0.50;1.00;;;;;;5008005;28;19953;-83
2022/03/05 03:53:16;;;;;;;;;;;0.50;1.00;;;;;;4999899;28;19948;-83
2022/03/05 03:55:42;;;;;;;;;;;0.40;10.80;;;;;;5006817;28;19913;-83
2022/03/05 03:58:07;;;;;;;;;;;0.40;27.20;;;;;;5006948;28;19964;-83
2022/03/05 04:00:33;;;;;;;;;;;0.40;51.00;;;;;;5010854;28;19921;-83
2022/03/05 04:02:59;;;;;;;;;;;0.40;31.40;;;;;;5005006;28;19948;-84
2022/03/05 04:05:25;;;;;;;;;;;0.40;46.70;;;;;;5007607;28;19979;-84
2022/03/05 04:10:35;;;;;;;;;;;0.40;28.70;;;;;;5007641;28;21233;-84
2022/03/05 04:13:00;;;;;;;;;;;0.30;99.90;;;;;;5010953;28;19968;-83
2022/03/05 04:15:26;;;;;;;;;;;0.30;99.90;;;;;;5006132;28;19925;-84
2022/03/05 04:17:51;;;;;;;;;;;0.30;99.90;;;;;;5005222;28;19935;-83
2022/03/05 04:20:17;;;;;;;;;;;0.30;2.20;;;;;;5008571;28;19990;-83
2022/03/05 04:22:42;;;;;;;;;;;0.20;95.80;;;;;;5009818;28;20485;-83
2022/03/05 04:25:08;;;;;;;;;;;0.20;99.90;;;;;;5008813;28;20363;-84
2022/03/05 04:27:34;;;;;;;;;;;0.20;99.90;;;;;;5010919;28;19928;-83
2022/03/05 04:30:00;;;;;;;;;;;0.20;99.90;;;;;;5011663;28;19910;-83
2022/03/05 04:32:25;;;;;;;;;;;0.10;1.00;;;;;;5012407;28;19939;-83
2022/03/05 04:34:50;;;;;;;;;;;0.10;1.00;;;;;;5016304;28;19924;-83
2022/03/05 04:37:16;;;;;;;;;;;0.10;1.00;;;;;;5012981;28;19914;-84
2022/03/05 04:39:42;;;;;;;;;;;0.10;99.90;;;;;;5026674;28;19922;-82
2022/03/05 04:42:07;;;;;;;;;;;0.10;99.90;;;;;;5009397;28;19928;-83
2022/03/05 04:44:33;;;;;;;;;;;0.10;99.90;;;;;;5011133;28;20003;-84
2022/03/05 04:46:59;;;;;;;;;;;0.10;99.90;;;;;;5011757;28;19949;-84
2022/03/05 04:49:24;;;;;;;;;;;0.20;99.90;;;;;;5013054;28;19928;-83
2022/03/05 04:51:50;;;;;;;;;;;0.00;1.00;;;;;;5017093;28;20333;-83
2022/03/05 04:54:15;;;;;;;;;;;0.00;1.00;;;;;;5012701;28;19914;-83
2022/03/05 04:56:41;;;;;;;;;;;0.00;99.90;;;;;;5011143;28;19921;-83
2022/03/05 04:59:06;;;;;;;;;;;0.00;1.00;;;;;;5013298;28;19910;-83
2022/03/05 05:01:32;;;;;;;;;;;0.00;99.90;;;;;;5012199;28;19929;-84
2022/03/05 05:03:57;;;;;;;;;;;0.00;1.00;;;;;;5016872;28;19991;-84
2022/03/05 05:06:24;;;;;;;;;;;0.00;1.00;;;;;;5012421;28;19921;-84
2022/03/05 05:08:50;;;;;;;;;;;0.00;1.00;;;;;;5013570;28;19913;-83
2022/03/05 05:11:16;;;;;;;;;;;0.00;1.00;;;;;;5014683;28;19952;-84
2022/03/05 05:13:41;;;;;;;;;;;0.00;1.00;;;;;;5014397;28;19972;-83
2022/03/05 05:16:07;;;;;;;;;;;-0.10;1.00;;;;;;5017701;28;19914;-83
2022/03/05 05:18:35;;;;;;;;;;;0.00;1.00;;;;;;5019058;28;20405;-84
2022/03/05 05:21:01;;;;;;;;;;;0.00;1.00;;;;;;5017474;28;19913;-84
2022/03/05 05:23:26;;;;;;;;;;;0.00;1.00;;;;;;5013154;28;19926;-84
2022/03/05 05:25:52;;;;;;;;;;;0.00;1.00;;;;;;5020995;28;19917;-84
2022/03/05 05:28:17;;;;;;;;;;;0.00;1.00;;;;;;5015284;28;19913;-83
2022/03/05 05:30:43;;;;;;;;;;;0.00;99.90;;;;;;5027911;28;19977;-84
2022/03/05 05:33:08;;;;;;;;;;;-0.10;99.90;;;;;;5014014;28;19914;-84
2022/03/05 05:35:34;;;;;;;;;;;0.00;1.00;;;;;;5008066;28;19913;-83
2022/03/05 05:37:59;;;;;;;;;;;0.00;1.00;;;;;;5008449;28;19922;-83
2022/03/05 05:40:25;;;;;;;;;;;-0.10;1.00;;;;;;5007029;28;19917;-83
2022/03/05 05:42:50;;;;;;;;;;;-0.10;1.00;;;;;;5005175;28;20016;-84
2022/03/05 05:45:16;;;;;;;;;;;-0.10;44.70;;;;;;5008897;28;19929;-83
2022/03/05 05:47:41;;;;;;;;;;;-0.10;1.00;;;;;;5009824;28;20021;-83
2022/03/05 05:50:07;;;;;;;;;;;-0.10;18.10;;;;;;5006745;28;19924;-84
2022/03/05 05:52:33;;;;;;;;;;;-0.10;99.90;;;;;;5007835;28;19914;-82
2022/03/05 05:54:59;;;;;;;;;;;-0.20;1.00;;;;;;5009769;28;19953;-84
2022/03/05 05:57:25;;;;;;;;;;;-0.10;99.90;;;;;;5008467;28;19913;-83
2022/03/05 05:59:50;;;;;;;;;;;-0.10;99.90;;;;;;5009580;28;19940;-83
2022/03/05 06:02:16;;;;;;;;;;;-0.10;99.90;;;;;;5009211;28;19917;-83
2022/03/05 06:04:42;;;;;;;;;;;-0.10;99.90;;;;;;5010515;28;19976;-83
2022/03/05 06:07:08;;;;;;;;;;;-0.10;99.90;;;;;;5007154;28;19964;-83
2022/03/05 06:09:34;;;;;;;;;;;-0.10;33.60;;;;;;5005078;28;19921;-84
2022/03/05 06:11:59;;;;;;;;;;;-0.10;1.00;;;;;;5008079;28;19914;-84
2022/03/05 06:14:25;;;;;;;;;;;-0.10;1.00;;;;;;5010543;28;20062;-83
2022/03/05 06:16:51;;;;;;;;;;;-0.10;1.00;;;;;;5021965;28;20306;-84
2022/03/05 06:19:16;;;;;;;;;;;-0.10;1.00;;;;;;5009251;28;19964;-83
2022/03/05 06:21:41;;;;;;;;;;;0.00;99.90;;;;;;5006013;28;19917;-83
2022/03/05 06:24:07;;;;;;;;;;;0.00;1.00;;;;;;5005728;28;20348;-83
2022/03/05 06:26:33;;;;;;;;;;;0.10;1.00;;;;;;5003827;28;19926;-84
2022/03/05 06:28:59;;;;;;;;;;;0.10;99.90;;;;;;5008551;28;19968;-84
2022/03/05 06:31:24;;;;;;;;;;;0.20;1.00;;;;;;5009993;28;19925;-83
2022/03/05 06:33:50;;;;;;;;;;;0.30;99.90;;;;;;5009442;28;19929;-83
2022/03/05 06:36:15;;;;;;;;;;;0.30;99.90;;;;;;5011435;28;19945;-84
2022/03/05 06:38:41;;;;;;;;;;;0.40;1.00;;;;;;5009097;28;20008;-84
2022/03/05 06:41:06;;;;;;;;;;;0.60;1.00;;;;;;5011322;28;19918;-84
2022/03/05 06:43:32;;;;;;;;;;;0.80;99.20;;;;;;5009838;28;22115;-85
2022/03/05 06:45:57;;;;;;;;;;;1.10;1.00;;;;;;5010273;28;19949;-85
2022/03/05 06:48:23;;;;;;;;;;;1.20;99.90;;;;;;5010519;28;19920;-86
2022/03/05 06:50:48;;;;;;;;;;;1.40;99.90;;;;;;5011765;28;20354;-85
2022/03/05 06:53:14;;;;;;;;;;;1.50;99.90;;;;;;5010108;28;19921;-86
2022/03/05 06:55:39;;;;;;;;;;;1.60;75.30;;;;;;5010878;28;19913;-85
2022/03/05 06:58:05;;;;;;;;;;;1.80;7.60;;;;;;5014763;28;20402;-85
2022/03/05 07:00:30;;;;;;;;;;;3.50;1.00;;;;;;5012188;28;20340;-86
2022/03/05 07:02:56;;;;;;;;;;;5.70;1.00;;;;;;5009304;28;19917;-86
2022/03/05 07:05:21;;;;;;;;;;;7.60;99.90;;;;;;5008753;28;19995;-86
2022/03/05 07:07:47;;;;;;;;;;;9.50;99.90;;;;;;5008805;28;19929;-85
2022/03/05 07:10:12;;;;;;;;;;;11.20;99.90;;;;;;5010163;28;19922;-86
2022/03/05 07:12:39;;;;;;;;;;;12.40;99.90;;;;;;5024184;28;19922;-85
2022/03/05 07:15:04;;;;;;;;;;;13.60;99.90;;;;;;5009112;28;20373;-86
2022/03/05 07:17:30;;;;;;;;;;;14.30;99.90;;;;;;5008837;28;19944;-85
2022/03/05 07:19:55;;;;;;;;;;;15.30;99.90;;;;;;5009519;28;19913;-85
2022/03/05 07:22:21;;;;;;;;;;;16.20;99.90;;;;;;5006602;28;19971;-86
2022/03/05 07:24:46;;;;;;;;;;;17.40;99.90;;;;;;5001906;28;20946;-85
2022/03/05 07:27:12;;;;;;;;;;;18.40;99.90;;;;;;5008025;28;19925;-85
2022/03/05 07:29:37;;;;;;;;;;;19.10;99.90;;;;;;5007999;28;19914;-85
2022/03/05 07:32:03;;;;;;;;;;;19.30;99.90;;;;;;5002174;28;20279;-86
2022/03/05 07:34:32;;;;;;;;;;;19.60;99.90;;;;;;5025306;28;19918;-86
2022/03/05 07:36:57;;;;;;;;;;;20.00;99.90;;;;;;5007664;28;19914;-85
2022/03/05 07:39:23;;;;;;;;;;;20.00;99.90;;;;;;5006214;28;19921;-85
2022/03/05 07:41:49;;;;;;;;;;;19.50;99.90;;;;;;5007690;28;19975;-85
2022/03/05 07:44:14;;;;;;;;;;;19.80;99.90;;;;;;5026894;28;19917;-85
2022/03/05 07:46:40;;;;;;;;;;;21.10;99.90;;;;;;5003674;28;20064;-85
2022/03/05 07:49:05;;;;;;;;;;;21.50;99.90;;;;;;5009421;28;20359;-85
2022/03/05 07:51:32;;;;;;;;;;;20.90;99.90;;;;;;5014417;28;20012;-85
2022/03/05 07:53:57;;;;;;;;;;;20.40;99.90;;;;;;5007641;28;19917;-86
2022/03/05 07:56:23;;;;;;;;;;;20.40;99.90;;;;;;5008626;28;19968;-85
2022/03/05 07:58:48;;;;;;;;;;;20.90;99.90;;;;;;5010379;28;19913;-86
2022/03/05 08:01:14;;;;;;;;;;;22.20;99.90;;;;;;5029477;28;19913;-86
2022/03/05 08:03:39;;;;;;;;;;;23.30;99.90;;;;;;5010995;28;20247;-85
2022/03/05 08:06:05;;;;;;;;;;;23.70;99.90;;;;;;5013438;28;20045;-85
2022/03/05 08:08:30;;;;;;;;;;;23.00;99.90;;;;;;5012638;28;20497;-86
2022/03/05 08:10:56;;;;;;;;;;;23.50;99.90;;;;;;5012631;28;19913;-83
2022/03/05 08:13:22;;;;;;;;;;;23.50;99.90;;;;;;5013915;28;19917;-84
2022/03/05 08:15:47;;;;;;;;;;;23.90;99.90;;;;;;5009640;28;21973;-84
2022/03/05 08:18:13;;;;;;;;;;;24.60;99.90;;;;;;5009474;28;19914;-83
2022/03/05 08:20:38;;;;;;;;;;;24.50;99.90;;;;;;5014140;28;19948;-84
2022/03/05 08:23:04;;;;;;;;;;;23.30;99.90;;;;;;5011354;28;20016;-84
2022/03/05 08:25:30;;;;;;;;;;;23.10;99.90;;;;;;5015233;28;20389;-84
2022/03/05 08:27:55;;;;;;;;;;;23.00;99.90;;;;;;5007947;28;19949;-84
2022/03/05 08:30:21;;;;;;;;;;;23.50;99.90;;;;;;5013016;28;19922;-83
2022/03/05 08:32:46;;;;;;;;;;;23.70;99.90;;;;;;5010752;28;20293;-84
2022/03/05 08:35:13;;;;;;;;;;;23.20;99.90;;;;;;5008525;28;19913;-84
2022/03/05 08:37:39;;;;;;;;;;;23.90;99.90;;;;;;5010441;28;19923;-83
2022/03/05 08:40:06;;;;;;;;;;;24.00;99.90;;;;;;5004856;28;19996;-83
2022/03/05 08:42:31;;;;;;;;;;;25.20;99.90;;;;;;5006919;28;20297;-84
2022/03/05 08:44:57;;;;;;;;;;;26.00;99.90;;;;;;5009532;28;19975;-83
2022/03/05 08:47:22;;;;;;;;;;;25.80;99.90;;;;;;5012860;28;19918;-83
2022/03/05 08:49:48;;;;;;;;;;;25.20;99.90;;;;;;5012354;28;19948;-83
2022/03/05 08:52:13;;;;;;;;;;;25.40;99.90;;;;;;5009888;28;20020;-83
2022/03/05 08:54:39;;;;;;;;;;;24.50;99.90;;;;;;5005298;28;19979;-83
2022/03/05 08:57:04;;;;;;;;;;;24.40;99.90;;;;;;5023894;28;19956;-83
2022/03/05 08:59:30;;;;;;;;;;;24.00;99.90;;;;;;5012158;28;19964;-84
2022/03/05 09:01:55;;;;;;;;;;;24.70;99.90;;;;;;5009703;28;20340;-84
2022/03/05 09:04:21;;;;;;;;;;;23.40;99.90;;;;;;5004680;28;20016;-83
2022/03/05 09:06:46;;;;;;;;;;;22.60;99.90;;;;;;5007755;28;20374;-83
2022/03/05 09:09:12;;;;;;;;;;;22.40;99.90;;;;;;5022775;28;19921;-82
2022/03/05 09:11:38;;;;;;;;;;;22.00;99.90;;;;;;5003621;28;19926;-83
2022/03/05 09:14:04;;;;;;;;;;;23.10;99.90;;;;;;5005405;28;19914;-83
2022/03/05 09:16:30;;;;;;;;;;;22.60;99.90;;;;;;5016497;28;19986;-84
2022/03/05 09:18:55;;;;;;;;;;;23.50;99.90;;;;;;5011898;28;19920;-84
2022/03/05 09:21:21;;;;;;;;;;;23.80;99.90;;;;;;5012729;28;20017;-84
2022/03/05 09:23:47;;;;;;;;;;;25.20;99.90;;;;;;5014835;28;20278;-83
2022/03/05 09:26:14;;;;;;;;;;;25.70;99.90;;;;;;5012540;28;19947;-84
2022/03/05 09:28:39;;;;;;;;;;;25.10;99.90;;;;;;5009402;28;19922;-83
2022/03/05 09:31:05;;;;;;;;;;;25.30;99.90;;;;;;5012320;28;20301;-83
2022/03/05 09:33:30;;;;;;;;;;;25.80;99.90;;;;;;5006475;28;20000;-84
2022/03/05 09:35:56;;;;;;;;;;;25.90;99.90;;;;;;5008338;28;19917;-84
2022/03/05 09:38:21;;;;;;;;;;;26.90;99.90;;;;;;5002984;28;19919;-84
2022/03/05 09:40:46;;;;;;;;;;;26.20;99.90;;;;;;5012136;28;19912;-84
2022/03/05 09:43:12;;;;;;;;;;;25.40;99.90;;;;;;5007530;28;19929;-83
2022/03/05 09:45:38;;;;;;;;;;;24.30;99.90;;;;;;5005956;28;20567;-83
2022/03/05 09:48:04;;;;;;;;;;;23.40;99.90;;;;;;5008989;28;20271;-82
2022/03/05 09:50:32;;;;;;;;;;;23.60;99.90;;;;;;5012564;28;19945;-82
2022/03/05 09:52:58;;;;;;;;;;;24.70;99.90;;;;;;5012201;28;20055;-82
2022/03/05 09:55:23;;;;;;;;;;;25.70;99.90;;;;;;5014382;28;19919;-82
2022/03/05 09:57:49;;;;;;;;;;;25.70;99.90;;;;;;5014731;28;20000;-83
2022/03/05 10:00:14;;;;;;;;;;;25.30;99.90;;;;;;5012817;28;19913;-82
2022/03/05 10:02:40;;;;;;;;;;;25.20;99.90;;;;;;5011016;28;20310;-81
2022/03/05 10:05:12;;;;;;;;;;;24.60;99.90;;;;;;5015794;28;19920;-83
2022/03/05 10:07:37;;;;;;;;;;;25.20;99.90;;;;;;5012271;28;19957;-85
2022/03/05 10:10:07;;;;;;;;;;;25.50;99.90;;;;;;5026927;28;20329;-83
2022/03/05 10:12:33;;;;;;;;;;;25.50;99.90;;;;;;5014147;28;19913;-84
2022/03/05 10:15:25;;;;;;;;;;;25.40;99.90;;;;;;5014639;28;20374;-83
2022/03/05 10:17:53;;;;;;;;;;;25.60;99.90;;;;;;5015128;28;19925;-84
2022/03/05 10:20:21;;;;;;;;;;;24.00;99.90;;;;;;5025800;28;19921;-83
2022/03/05 10:22:58;;;;;;;;;;;24.30;99.90;;;;;;5013086;28;19913;-83
2022/03/05 10:25:28;;;;;;;;;;;24.30;99.90;;;;;;5015128;28;19917;-83
2022/03/05 10:27:59;;;;;;;;;;;24.20;99.90;;;;;;5014704;28;19913;-83
2022/03/05 10:30:31;;;;;;;;;;;24.10;99.90;;;;;;5021674;28;20293;-83
2022/03/05 10:32:57;;;;;;;;;;;23.30;99.90;;;;;;5015697;28;19939;-84
2022/03/05 10:35:22;;;;;;;;;;;24.20;99.90;;;;;;5020521;28;19913;-85
2022/03/05 10:37:51;;;;;;;;;;;24.00;99.90;;;;;;5009493;28;19917;-85
2022/03/05 10:40:24;;;;;;;;;;;24.00;99.90;;;;;;5013381;28;19937;-83
2022/03/05 10:42:50;;;;;;;;;;;24.10;99.90;;;;;;5010043;28;19924;-84
2022/03/05 10:45:18;;;;;;;;;;;24.50;99.90;;;;;;5023418;28;19909;-82
2022/03/05 10:47:46;;;;;;;;;;;24.90;99.90;;;;;;5013896;28;19910;-83
2022/03/05 10:50:14;;;;;;;;;;;24.60;99.90;;;;;;5014481;28;20434;-83
2022/03/05 10:52:44;;;;;;;;;;;24.70;99.90;;;;;;5030781;28;19999;-83
2022/03/05 10:55:14;;;;;;;;;;;24.50;99.90;;;;;;5013339;28;20333;-83
2022/03/05 10:57:54;;;;;;;;;;;24.50;99.90;;;;;;5015476;28;19910;-83
2022/03/05 11:00:19;;;;;;;;;;;25.30;99.90;;;;;;5015121;28;20462;-83
2022/03/05 11:02:45;;;;;;;;;;;25.20;99.90;;;;;;4995570;28;19953;-83
2022/03/05 11:05:11;;;;;;;;;;;24.90;99.90;;;;;;4995466;28;20025;-83
2022/03/05 11:07:37;;;;;;;;;;;24.10;99.90;;;;;;4997906;28;20431;-83
2022/03/05 11:10:03;;;;;;;;;;;24.70;99.90;;;;;;4998056;28;20040;-83
2022/03/05 11:12:30;;;;;;;;;;;24.80;99.90;;;;;;4997444;28;19957;-83
2022/03/05 11:14:56;;;;;;;;;;;24.30;99.90;;;;;;4996315;28;20370;-83
2022/03/05 11:17:21;;;;;;;;;;;23.40;99.90;;;;;;4999056;28;19910;-83
2022/03/05 11:19:47;;;;;;;;;;;23.50;99.90;;;;;;5001078;28;19910;-83
2022/03/05 11:22:14;;;;;;;;;;;22.90;99.90;;;;;;5013112;28;19914;-83
2022/03/05 11:24:40;;;;;;;;;;;22.80;99.90;;;;;;5012546;28;19909;-83
2022/03/05 11:27:06;;;;;;;;;;;22.60;99.90;;;;;;5004103;28;19956;-83
2022/03/05 11:29:51;;;;;;;;;;;22.80;99.90;;;;;;5012923;28;19971;-83
2022/03/05 11:32:18;;;;;;;;;;;23.00;99.90;;;;;;5046574;23;19926;-85
2022/03/05 11:34:44;;;;;;;;;;;23.70;99.90;;;;;;5043489;28;20009;-85
2022/03/05 11:37:17;;;;;;;;;;;24.80;99.90;;;;;;5044038;28;19955;-85
2022/03/05 11:39:43;;;;;;;;;;;25.40;99.90;;;;;;5042127;28;19916;-85
2022/03/05 11:42:09;;;;;;;;;;;24.10;99.90;;;;;;5030423;28;19909;-85
2022/03/05 11:44:44;;;;;;;;;;;24.70;99.90;;;;;;5030312;28;20385;-85
2022/03/05 11:47:19;;;;;;;;;;;24.70;99.90;;;;;;5043205;28;19922;-86
2022/03/05 11:49:59;;;;;;;;;;;24.20;99.90;;;;;;5046596;28;19945;-86
2022/03/05 11:52:46;;;;;;;;;;;23.60;99.90;;;;;;5046443;28;19918;-85
2022/03/05 11:55:15;;;;;;;;;;;24.30;99.90;;;;;;5046376;28;19909;-86
2022/03/05 11:57:40;;;;;;;;;;;24.70;99.90;;;;;;5045296;28;19956;-85
2022/03/05 12:00:06;;;;;;;;;;;24.80;99.90;;;;;;5043910;28;20004;-85
2022/03/05 12:02:51;;;;;;;;;;;24.80;99.90;;;;;;5042478;28;19918;-84
2022/03/05 12:05:35;;;;;;;;;;;24.60;99.90;;;;;;5038548;28;19920;-85
2022/03/05 12:08:00;;;;;;;;;;;24.50;99.90;;;;;;5039895;28;19909;-84
2022/03/05 12:10:26;;;;;;;;;;;23.80;99.90;;;;;;5038700;28;19909;-83
2022/03/05 12:12:59;;;;;;;;;;;23.70;99.90;;;;;;5038929;28;19914;-84
2022/03/05 12:15:31;;;;;;;;;;;23.00;99.90;;;;;;5039602;28;19982;-84
2022/03/05 12:17:56;;;;;;;;;;;23.90;99.90;;;;;;5039729;28;19916;-84
2022/03/05 12:20:24;;;;;;;;;;;24.10;99.90;;;;;;5039088;28;20373;-84
2022/03/05 12:22:51;;;;;;;;;;;24.10;99.90;;;;;;5038813;28;19915;-84
2022/03/05 12:25:17;;;;;;;;;;;24.30;99.90;;;;;;5040146;28;19909;-83
2022/03/05 12:27:47;;;;;;;;;;;24.30;99.90;;;;;;5039432;28;19913;-83
2022/03/05 12:30:13;;;;;;;;;;;24.80;99.90;;;;;;5037615;28;20439;-84
2022/03/05 12:32:41;;;;;;;;;;;24.90;99.90;;;;;;5037148;28;20267;-83
2022/03/05 12:35:07;;;;;;;;;;;24.40;99.90;;;;;;5038066;28;19909;-83
2022/03/05 12:37:33;;;;;;;;;;;24.30;99.90;;;;;;5036603;28;19917;-83
2022/03/05 12:39:59;;;;;;;;;;;22.90;99.90;;;;;;5038271;28;19909;-83
2022/03/05 12:42:32;;;;;;;;;;;22.70;99.90;;;;;;5036700;28;19931;-83
2022/03/05 12:44:58;;;;;;;;;;;22.80;99.90;;;;;;5038042;28;19956;-83
2022/03/05 12:47:30;;;;;;;;;;;23.30;99.90;;;;;;5037601;28;19959;-82
2022/03/05 12:49:55;;;;;;;;;;;23.90;99.90;;;;;;5038526;28;19909;-83
2022/03/05 12:52:20;;;;;;;;;;;24.80;99.90;;;;;;5052388;28;19944;-82
2022/03/05 12:54:52;;;;;;;;;;;25.20;99.90;;;;;;5038155;28;19955;-82
2022/03/05 12:57:18;;;;;;;;;;;25.30;99.90;;;;;;5036902;28;19916;-82
2022/03/05 12:59:44;;;;;;;;;;;25.40;99.90;;;;;;5038086;28;20368;-81
2022/03/05 13:02:10;;;;;;;;;;;25.80;99.90;;;;;;5037439;28;19916;-82
2022/03/05 13:04:36;;;;;;;;;;;25.70;99.90;;;;;;5039549;28;19910;-83
2022/03/05 13:07:02;;;;;;;;;;;25.60;99.90;;;;;;5041500;28;20052;-83
2022/03/05 13:09:28;;;;;;;;;;;25.40;99.90;;;;;;5040795;28;19949;-84
2022/03/05 13:11:53;;;;;;;;;;;24.50;99.90;;;;;;5040456;28;19917;-84
2022/03/05 13:14:20;;;;;;;;;;;23.80;99.90;;;;;;5039924;28;19909;-83
2022/03/05 13:16:48;;;;;;;;;;;22.40;99.90;;;;;;5035586;28;19910;-83
2022/03/05 13:19:14;;;;;;;;;;;21.90;99.90;;;;;;5040454;28;19972;-84
2022/03/05 13:21:40;;;;;;;;;;;21.90;99.90;;;;;;5037125;28;19941;-83
2022/03/05 13:24:07;;;;;;;;;;;21.10;99.90;;;;;;5038345;28;19996;-83
2022/03/05 13:26:35;;;;;;;;;;;21.20;99.90;;;;;;5039342;28;20000;-84
2022/03/05 13:29:02;;;;;;;;;;;21.00;99.90;;;;;;5039749;28;19909;-83
2022/03/05 13:31:28;;;;;;;;;;;21.20;99.90;;;;;;5040057;28;19920;-83
2022/03/05 13:33:54;;;;;;;;;;;21.00;99.90;;;;;;5038880;28;19960;-83
2022/03/05 13:36:30;;;;;;;;;;;19.90;99.90;;;;;;5037788;28;19909;-83
2022/03/05 13:39:02;;;;;;;;;;;20.00;99.90;;;;;;5047892;28;19909;-83
2022/03/05 13:41:28;;;;;;;;;;;20.20;99.90;;;;;;5040184;28;19963;-83
2022/03/05 13:43:54;;;;;;;;;;;20.40;99.90;;;;;;5038644;28;19917;-83
2022/03/05 13:46:20;;;;;;;;;;;19.80;99.90;;;;;;5039726;28;19999;-83
2022/03/05 13:48:53;;;;;;;;;;;19.90;99.90;;;;;;5038547;28;19964;-83
2022/03/05 13:51:21;;;;;;;;;;;20.00;99.90;;;;;;5040135;28;19915;-83
2022/03/05 13:53:48;;;;;;;;;;;19.40;99.90;;;;;;5035046;28;19917;-82
2022/03/05 13:56:14;;;;;;;;;;;19.40;99.90;;;;;;5037433;28;19992;-82
2022/03/05 13:58:40;;;;;;;;;;;19.60;99.90;;;;;;5036981;28;19952;-82
2022/03/05 14:01:24;;;;;;;;;;;19.40;99.90;;;;;;5037167;28;19964;-82
2022/03/05 14:04:08;;;;;;;;;;;19.20;99.90;;;;;;5037128;28;19910;-83
2022/03/05 14:06:46;;;;;;;;;;;19.30;99.90;;;;;;5038430;28;19989;-83
2022/03/05 14:09:21;;;;;;;;;;;19.40;99.90;;;;;;5038212;28;19909;-83
2022/03/05 14:11:59;;;;;;;;;;;19.80;99.90;;;;;;5036362;28;19913;-84
2022/03/05 14:14:33;;;;;;;;;;;19.90;99.90;;;;;;5037088;28;20361;-84
2022/03/05 14:16:58;;;;;;;;;;;19.60;99.90;;;;;;5036794;28;19916;-83
2022/03/05 14:19:30;;;;;;;;;;;19.30;99.90;;;;;;5036506;28;19913;-83
2022/03/05 14:22:22;;;;;;;;;;;19.00;99.90;;;;;;5037251;28;19916;-82
2022/03/05 14:24:53;;;;;;;;;;;18.60;99.90;;;;;;5037205;28;19955;-82